Seneffe, Belgium
Current Conditions -  °F | °C
As of 8:50 AM on Monday 22 Dec 2014 (Local Time) from EBCI Reporting Station
Broken Clouds Broken Clouds  
Wind Chill: 36°   Ceiling: 900
Heat Index: 45°   Visibility: 6mi
Dew Point: 43°   Wind: 22mph
Humidity: 93%   Direction: 210°SSW
Pressure: 30.21"   Gusts: NA
Location:  50.53°N, 4.26°E
Report Text: EBCI 220750Z 21019KT 9999 BKN009 07/06 Q1023 TEMPO 23020G35KT
Loading
Personal Weather Stations






























Interactive Weather Map New forecast layout! Learn more

10-Day Weather Forecast

Advertisements
Track Severe Weather on mobile